sensor_id;sensor_type;location;lat;lon;timestamp;P1;durP1;ratioP1;P2;durP2;ratioP2
47219;SDS011;32961;51.936;4.788;2023-03-25T00:02:20;16.15;;;3.42;;
47219;SDS011;32961;51.936;4.788;2023-03-25T00:04:49;14.75;;;2.72;;
47219;SDS011;32961;51.936;4.788;2023-03-25T00:07:18;18.92;;;3.00;;
47219;SDS011;32961;51.936;4.788;2023-03-25T00:09:47;17.85;;;2.90;;
47219;SDS011;32961;51.936;4.788;2023-03-25T00:12:16;18.45;;;3.20;;
47219;SDS011;32961;51.936;4.788;2023-03-25T00:14:45;14.98;;;2.97;;
47219;SDS011;32961;51.936;4.788;2023-03-25T00:17:20;22.08;;;3.72;;
47219;SDS011;32961;51.936;4.788;2023-03-25T00:19:48;18.33;;;3.00;;
47219;SDS011;32961;51.936;4.788;2023-03-25T00:22:17;20.33;;;3.17;;
47219;SDS011;32961;51.936;4.788;2023-03-25T00:24:45;14.77;;;2.80;;
47219;SDS011;32961;51.936;4.788;2023-03-25T00:27:14;20.63;;;2.67;;
47219;SDS011;32961;51.936;4.788;2023-03-25T00:29:43;17.25;;;3.22;;
47219;SDS011;32961;51.936;4.788;2023-03-25T00:32:12;20.20;;;3.83;;
47219;SDS011;32961;51.936;4.788;2023-03-25T00:34:41;14.55;;;3.05;;
47219;SDS011;32961;51.936;4.788;2023-03-25T00:37:13;20.65;;;4.78;;
47219;SDS011;32961;51.936;4.788;2023-03-25T00:39:43;16.02;;;3.20;;
47219;SDS011;32961;51.936;4.788;2023-03-25T00:42:15;11.60;;;2.97;;
47219;SDS011;32961;51.936;4.788;2023-03-25T00:44:43;14.57;;;2.92;;
47219;SDS011;32961;51.936;4.788;2023-03-25T00:47:11;16.08;;;2.83;;
47219;SDS011;32961;51.936;4.788;2023-03-25T00:49:43;20.23;;;5.03;;
47219;SDS011;32961;51.936;4.788;2023-03-25T00:52:11;16.98;;;2.83;;
47219;SDS011;32961;51.936;4.788;2023-03-25T00:54:39;15.85;;;2.58;;
47219;SDS011;32961;51.936;4.788;2023-03-25T00:57:07;21.95;;;3.17;;
47219;SDS011;32961;51.936;4.788;2023-03-25T00:59:36;13.77;;;2.80;;
47219;SDS011;32961;51.936;4.788;2023-03-25T01:02:04;28.70;;;5.00;;
47219;SDS011;32961;51.936;4.788;2023-03-25T01:04:32;12.80;;;2.83;;
47219;SDS011;32961;51.936;4.788;2023-03-25T01:07:00;16.23;;;2.97;;
47219;SDS011;32961;51.936;4.788;2023-03-25T01:09:28;27.58;;;2.70;;
47219;SDS011;32961;51.936;4.788;2023-03-25T01:11:57;13.00;;;3.15;;
47219;SDS011;32961;51.936;4.788;2023-03-25T01:14:25;17.65;;;2.90;;
47219;SDS011;32961;51.936;4.788;2023-03-25T01:16:57;19.50;;;2.95;;
47219;SDS011;32961;51.936;4.788;2023-03-25T01:19:25;26.88;;;3.35;;
47219;SDS011;32961;51.936;4.788;2023-03-25T01:21:52;15.82;;;4.35;;
47219;SDS011;32961;51.936;4.788;2023-03-25T01:24:20;21.23;;;2.75;;
47219;SDS011;32961;51.936;4.788;2023-03-25T01:26:48;29.00;;;3.67;;
47219;SDS011;32961;51.936;4.788;2023-03-25T01:29:16;17.48;;;3.05;;
47219;SDS011;32961;51.936;4.788;2023-03-25T01:31:46;20.65;;;3.17;;
47219;SDS011;32961;51.936;4.788;2023-03-25T01:34:16;17.08;;;3.25;;
47219;SDS011;32961;51.936;4.788;2023-03-25T01:36:43;16.45;;;2.70;;
47219;SDS011;32961;51.936;4.788;2023-03-25T01:39:13;18.27;;;2.47;;
47219;SDS011;32961;51.936;4.788;2023-03-25T01:41:44;19.52;;;2.88;;
47219;SDS011;32961;51.936;4.788;2023-03-25T01:47:22;17.67;;;3.22;;
47219;SDS011;32961;51.936;4.788;2023-03-25T01:49:53;13.13;;;2.90;;
47219;SDS011;32961;51.936;4.788;2023-03-25T01:52:22;15.40;;;2.90;;
47219;SDS011;32961;51.936;4.788;2023-03-25T01:54:55;25.63;;;4.28;;
47219;SDS011;32961;51.936;4.788;2023-03-25T01:57:25;23.58;;;3.70;;
47219;SDS011;32961;51.936;4.788;2023-03-25T01:59:53;15.48;;;2.90;;
47219;SDS011;32961;51.936;4.788;2023-03-25T02:02:22;22.20;;;5.32;;
47219;SDS011;32961;51.936;4.788;2023-03-25T02:05:03;15.88;;;4.07;;
47219;SDS011;32961;51.936;4.788;2023-03-25T02:07:37;17.75;;;2.90;;
47219;SDS011;32961;51.936;4.788;2023-03-25T02:10:09;13.88;;;2.85;;
47219;SDS011;32961;51.936;4.788;2023-03-25T02:12:37;18.65;;;3.63;;
47219;SDS011;32961;51.936;4.788;2023-03-25T02:15:06;20.88;;;5.13;;
47219;SDS011;32961;51.936;4.788;2023-03-25T02:17:39;12.65;;;3.03;;
47219;SDS011;32961;51.936;4.788;2023-03-25T02:20:26;21.10;;;3.05;;
47219;SDS011;32961;51.936;4.788;2023-03-25T02:23:20;24.95;;;3.55;;
47219;SDS011;32961;51.936;4.788;2023-03-25T02:29:24;22.75;;;3.47;;
47219;SDS011;32961;51.936;4.788;2023-03-25T02:32:12;17.88;;;3.55;;
47219;SDS011;32961;51.936;4.788;2023-03-25T02:40:33;19.05;;;3.33;;
47219;SDS011;32961;51.936;4.788;2023-03-25T02:43:05;19.73;;;3.23;;
47219;SDS011;32961;51.936;4.788;2023-03-25T02:45:40;13.48;;;3.08;;
47219;SDS011;32961;51.936;4.788;2023-03-25T02:48:14;23.15;;;3.80;;
47219;SDS011;32961;51.936;4.788;2023-03-25T02:50:47;19.38;;;3.33;;
47219;SDS011;32961;51.936;4.788;2023-03-25T02:53:20;19.30;;;3.42;;
47219;SDS011;32961;51.936;4.788;2023-03-25T02:55:53;17.17;;;2.92;;
47219;SDS011;32961;51.936;4.788;2023-03-25T02:58:24;15.40;;;4.40;;
47219;SDS011;32961;51.936;4.788;2023-03-25T03:00:55;16.52;;;3.70;;
47219;SDS011;32961;51.936;4.788;2023-03-25T03:03:24;23.23;;;4.03;;
47219;SDS011;32961;51.936;4.788;2023-03-25T03:05:55;21.40;;;3.42;;
47219;SDS011;32961;51.936;4.788;2023-03-25T03:08:29;20.58;;;3.45;;
47219;SDS011;32961;51.936;4.788;2023-03-25T03:11:09;17.52;;;3.20;;
47219;SDS011;32961;51.936;4.788;2023-03-25T03:13:48;20.60;;;3.90;;
47219;SDS011;32961;51.936;4.788;2023-03-25T03:16:24;16.85;;;3.33;;
47219;SDS011;32961;51.936;4.788;2023-03-25T03:19:01;24.52;;;4.40;;
47219;SDS011;32961;51.936;4.788;2023-03-25T03:21:40;28.48;;;3.95;;
47219;SDS011;32961;51.936;4.788;2023-03-25T03:24:20;20.85;;;3.92;;
47219;SDS011;32961;51.936;4.788;2023-03-25T03:26:54;19.50;;;3.17;;
47219;SDS011;32961;51.936;4.788;2023-03-25T03:29:27;10.00;;;1.98;;
47219;SDS011;32961;51.936;4.788;2023-03-25T03:32:00;26.02;;;3.50;;
47219;SDS011;32961;51.936;4.788;2023-03-25T03:34:35;24.27;;;5.18;;
47219;SDS011;32961;51.936;4.788;2023-03-25T03:37:10;24.05;;;3.63;;
47219;SDS011;32961;51.936;4.788;2023-03-25T03:39:43;24.98;;;3.72;;
47219;SDS011;32961;51.936;4.788;2023-03-25T03:42:14;21.83;;;4.88;;
47219;SDS011;32961;51.936;4.788;2023-03-25T03:44:48;23.20;;;3.88;;
47219;SDS011;32961;51.936;4.788;2023-03-25T03:47:19;19.92;;;3.92;;
47219;SDS011;32961;51.936;4.788;2023-03-25T03:49:51;23.23;;;3.92;;
47219;SDS011;32961;51.936;4.788;2023-03-25T03:52:23;26.67;;;3.95;;
47219;SDS011;32961;51.936;4.788;2023-03-25T03:54:57;18.80;;;3.58;;
47219;SDS011;32961;51.936;4.788;2023-03-25T03:57:28;29.98;;;4.10;;
47219;SDS011;32961;51.936;4.788;2023-03-25T04:00:01;25.38;;;3.88;;
47219;SDS011;32961;51.936;4.788;2023-03-25T04:02:33;25.23;;;5.38;;
47219;SDS011;32961;51.936;4.788;2023-03-25T04:05:06;28.92;;;4.93;;
47219;SDS011;32961;51.936;4.788;2023-03-25T04:07:38;26.83;;;4.88;;
47219;SDS011;32961;51.936;4.788;2023-03-25T04:10:10;21.17;;;3.90;;
47219;SDS011;32961;51.936;4.788;2023-03-25T04:12:42;31.85;;;4.85;;
47219;SDS011;32961;51.936;4.788;2023-03-25T04:15:12;28.23;;;3.75;;
47219;SDS011;32961;51.936;4.788;2023-03-25T04:17:41;28.10;;;6.55;;
47219;SDS011;32961;51.936;4.788;2023-03-25T04:20:09;30.60;;;5.80;;
47219;SDS011;32961;51.936;4.788;2023-03-25T04:22:40;30.77;;;6.82;;
47219;SDS011;32961;51.936;4.788;2023-03-25T04:25:12;26.27;;;4.80;;
47219;SDS011;32961;51.936;4.788;2023-03-25T04:27:40;25.50;;;4.63;;
47219;SDS011;32961;51.936;4.788;2023-03-25T04:30:14;24.13;;;4.10;;
47219;SDS011;32961;51.936;4.788;2023-03-25T04:32:44;22.90;;;4.47;;
47219;SDS011;32961;51.936;4.788;2023-03-25T04:35:13;28.70;;;4.20;;
47219;SDS011;32961;51.936;4.788;2023-03-25T04:37:42;20.67;;;4.30;;
47219;SDS011;32961;51.936;4.788;2023-03-25T04:40:13;19.08;;;4.00;;
47219;SDS011;32961;51.936;4.788;2023-03-25T04:42:44;29.20;;;4.85;;
47219;SDS011;32961;51.936;4.788;2023-03-25T04:45:12;24.10;;;4.05;;
47219;SDS011;32961;51.936;4.788;2023-03-25T04:47:43;20.73;;;4.00;;
47219;SDS011;32961;51.936;4.788;2023-03-25T04:50:15;23.35;;;4.20;;
47219;SDS011;32961;51.936;4.788;2023-03-25T04:52:47;24.00;;;4.90;;
47219;SDS011;32961;51.936;4.788;2023-03-25T04:55:18;33.88;;;5.43;;
47219;SDS011;32961;51.936;4.788;2023-03-25T04:57:46;25.77;;;5.05;;
47219;SDS011;32961;51.936;4.788;2023-03-25T05:00:17;27.15;;;4.38;;
47219;SDS011;32961;51.936;4.788;2023-03-25T05:02:48;29.23;;;5.07;;
47219;SDS011;32961;51.936;4.788;2023-03-25T05:05:18;31.77;;;6.35;;
47219;SDS011;32961;51.936;4.788;2023-03-25T05:07:47;23.85;;;3.92;;
47219;SDS011;32961;51.936;4.788;2023-03-25T05:10:19;33.15;;;5.43;;
47219;SDS011;32961;51.936;4.788;2023-03-25T05:12:48;30.83;;;7.00;;
47219;SDS011;32961;51.936;4.788;2023-03-25T05:15:16;29.95;;;4.20;;
47219;SDS011;32961;51.936;4.788;2023-03-25T05:17:44;32.15;;;6.05;;
47219;SDS011;32961;51.936;4.788;2023-03-25T05:20:12;35.03;;;4.95;;
47219;SDS011;32961;51.936;4.788;2023-03-25T05:22:41;42.63;;;6.18;;
47219;SDS011;32961;51.936;4.788;2023-03-25T05:25:10;32.45;;;5.78;;
47219;SDS011;32961;51.936;4.788;2023-03-25T05:27:40;34.05;;;4.60;;
47219;SDS011;32961;51.936;4.788;2023-03-25T05:30:08;30.83;;;4.78;;
47219;SDS011;32961;51.936;4.788;2023-03-25T05:32:36;32.17;;;5.03;;
47219;SDS011;32961;51.936;4.788;2023-03-25T05:35:06;20.45;;;3.67;;
47219;SDS011;32961;51.936;4.788;2023-03-25T05:37:35;27.65;;;5.50;;
47219;SDS011;32961;51.936;4.788;2023-03-25T05:40:04;35.03;;;5.18;;
47219;SDS011;32961;51.936;4.788;2023-03-25T05:42:41;28.40;;;4.22;;
47219;SDS011;32961;51.936;4.788;2023-03-25T05:47:42;19.27;;;4.75;;
47219;SDS011;32961;51.936;4.788;2023-03-25T05:50:10;29.27;;;5.18;;
47219;SDS011;32961;51.936;4.788;2023-03-25T05:52:39;32.03;;;5.25;;
47219;SDS011;32961;51.936;4.788;2023-03-25T05:55:09;33.65;;;5.70;;
47219;SDS011;32961;51.936;4.788;2023-03-25T05:57:38;24.45;;;4.45;;
47219;SDS011;32961;51.936;4.788;2023-03-25T06:00:08;24.38;;;6.05;;
47219;SDS011;32961;51.936;4.788;2023-03-25T06:02:38;29.50;;;5.50;;
47219;SDS011;32961;51.936;4.788;2023-03-25T06:05:08;32.33;;;5.35;;
47219;SDS011;32961;51.936;4.788;2023-03-25T06:07:39;36.33;;;4.45;;
47219;SDS011;32961;51.936;4.788;2023-03-25T06:10:08;35.63;;;6.20;;
47219;SDS011;32961;51.936;4.788;2023-03-25T06:12:37;30.63;;;3.83;;
47219;SDS011;32961;51.936;4.788;2023-03-25T06:15:05;24.45;;;4.07;;
47219;SDS011;32961;51.936;4.788;2023-03-25T06:17:36;23.02;;;3.92;;
47219;SDS011;32961;51.936;4.788;2023-03-25T06:20:05;31.13;;;4.45;;
47219;SDS011;32961;51.936;4.788;2023-03-25T06:22:37;32.10;;;4.38;;
47219;SDS011;32961;51.936;4.788;2023-03-25T06:25:05;29.15;;;4.93;;
47219;SDS011;32961;51.936;4.788;2023-03-25T06:27:34;24.95;;;4.63;;
47219;SDS011;32961;51.936;4.788;2023-03-25T06:30:08;22.55;;;4.78;;
47219;SDS011;32961;51.936;4.788;2023-03-25T06:32:37;20.70;;;3.80;;
47219;SDS011;32961;51.936;4.788;2023-03-25T06:35:07;31.80;;;4.53;;
47219;SDS011;32961;51.936;4.788;2023-03-25T06:37:36;27.50;;;5.00;;
47219;SDS011;32961;51.936;4.788;2023-03-25T06:40:04;21.52;;;4.28;;
47219;SDS011;32961;51.936;4.788;2023-03-25T06:42:33;27.80;;;4.28;;
47219;SDS011;32961;51.936;4.788;2023-03-25T06:45:01;24.73;;;3.55;;
47219;SDS011;32961;51.936;4.788;2023-03-25T06:47:31;27.38;;;4.53;;
47219;SDS011;32961;51.936;4.788;2023-03-25T06:50:00;26.55;;;4.28;;
47219;SDS011;32961;51.936;4.788;2023-03-25T06:52:27;27.98;;;4.40;;
47219;SDS011;32961;51.936;4.788;2023-03-25T06:54:55;23.38;;;4.38;;
47219;SDS011;32961;51.936;4.788;2023-03-25T06:57:23;29.58;;;4.07;;
47219;SDS011;32961;51.936;4.788;2023-03-25T06:59:51;24.88;;;5.32;;
47219;SDS011;32961;51.936;4.788;2023-03-25T07:02:19;28.42;;;4.65;;
47219;SDS011;32961;51.936;4.788;2023-03-25T07:04:48;24.40;;;4.65;;
47219;SDS011;32961;51.936;4.788;2023-03-25T07:07:17;29.63;;;5.72;;
47219;SDS011;32961;51.936;4.788;2023-03-25T07:09:49;35.05;;;5.55;;
47219;SDS011;32961;51.936;4.788;2023-03-25T07:12:17;27.35;;;4.50;;
47219;SDS011;32961;51.936;4.788;2023-03-25T07:14:49;29.05;;;4.93;;
47219;SDS011;32961;51.936;4.788;2023-03-25T07:17:17;34.95;;;5.55;;
47219;SDS011;32961;51.936;4.788;2023-03-25T07:19:45;24.70;;;4.07;;
47219;SDS011;32961;51.936;4.788;2023-03-25T07:22:14;30.05;;;5.13;;
47219;SDS011;32961;51.936;4.788;2023-03-25T07:24:42;28.73;;;5.10;;
47219;SDS011;32961;51.936;4.788;2023-03-25T07:27:11;27.00;;;4.47;;
47219;SDS011;32961;51.936;4.788;2023-03-25T07:29:39;29.60;;;4.53;;
47219;SDS011;32961;51.936;4.788;2023-03-25T07:32:07;30.27;;;5.10;;
47219;SDS011;32961;51.936;4.788;2023-03-25T07:34:35;38.88;;;9.27;;
47219;SDS011;32961;51.936;4.788;2023-03-25T07:37:03;32.97;;;4.47;;
47219;SDS011;32961;51.936;4.788;2023-03-25T07:39:32;31.10;;;4.80;;
47219;SDS011;32961;51.936;4.788;2023-03-25T07:42:00;22.17;;;4.45;;
47219;SDS011;32961;51.936;4.788;2023-03-25T07:44:28;41.13;;;5.45;;
47219;SDS011;32961;51.936;4.788;2023-03-25T07:46:56;34.10;;;5.20;;
47219;SDS011;32961;51.936;4.788;2023-03-25T07:49:23;30.13;;;6.28;;
47219;SDS011;32961;51.936;4.788;2023-03-25T07:51:51;26.65;;;6.90;;
47219;SDS011;32961;51.936;4.788;2023-03-25T07:54:19;30.65;;;6.15;;
47219;SDS011;32961;51.936;4.788;2023-03-25T07:56:49;26.30;;;5.28;;
47219;SDS011;32961;51.936;4.788;2023-03-25T07:59:18;36.45;;;4.97;;
47219;SDS011;32961;51.936;4.788;2023-03-25T08:01:45;32.25;;;5.13;;
47219;SDS011;32961;51.936;4.788;2023-03-25T08:04:13;28.60;;;4.93;;
47219;SDS011;32961;51.936;4.788;2023-03-25T08:06:41;36.08;;;5.07;;
47219;SDS011;32961;51.936;4.788;2023-03-25T08:09:09;30.00;;;5.65;;
47219;SDS011;32961;51.936;4.788;2023-03-25T08:11:37;24.30;;;4.93;;
47219;SDS011;32961;51.936;4.788;2023-03-25T08:14:06;36.92;;;7.30;;
47219;SDS011;32961;51.936;4.788;2023-03-25T08:16:34;28.70;;;4.93;;
47219;SDS011;32961;51.936;4.788;2023-03-25T08:19:01;28.65;;;5.82;;
47219;SDS011;32961;51.936;4.788;2023-03-25T08:21:29;32.17;;;5.70;;
47219;SDS011;32961;51.936;4.788;2023-03-25T08:23:57;40.95;;;6.03;;
47219;SDS011;32961;51.936;4.788;2023-03-25T08:26:27;35.60;;;7.03;;
47219;SDS011;32961;51.936;4.788;2023-03-25T08:28:56;27.67;;;5.13;;
47219;SDS011;32961;51.936;4.788;2023-03-25T08:31:26;40.22;;;5.47;;
47219;SDS011;32961;51.936;4.788;2023-03-25T08:33:56;33.28;;;5.82;;
47219;SDS011;32961;51.936;4.788;2023-03-25T08:36:24;33.65;;;5.20;;
47219;SDS011;32961;51.936;4.788;2023-03-25T08:38:53;34.88;;;8.07;;
47219;SDS011;32961;51.936;4.788;2023-03-25T08:41:21;36.50;;;6.35;;
47219;SDS011;32961;51.936;4.788;2023-03-25T08:43:49;41.80;;;7.53;;
47219;SDS011;32961;51.936;4.788;2023-03-25T08:46:16;29.23;;;5.22;;
47219;SDS011;32961;51.936;4.788;2023-03-25T08:48:46;35.50;;;4.85;;
47219;SDS011;32961;51.936;4.788;2023-03-25T08:51:15;41.63;;;6.07;;
47219;SDS011;32961;51.936;4.788;2023-03-25T08:53:43;38.95;;;6.18;;
47219;SDS011;32961;51.936;4.788;2023-03-25T08:56:11;33.30;;;6.00;;
47219;SDS011;32961;51.936;4.788;2023-03-25T08:58:39;35.63;;;5.47;;
47219;SDS011;32961;51.936;4.788;2023-03-25T09:01:08;39.63;;;6.88;;
47219;SDS011;32961;51.936;4.788;2023-03-25T09:03:37;48.38;;;6.15;;
47219;SDS011;32961;51.936;4.788;2023-03-25T09:06:07;39.15;;;5.97;;
47219;SDS011;32961;51.936;4.788;2023-03-25T09:08:35;34.10;;;5.53;;
47219;SDS011;32961;51.936;4.788;2023-03-25T09:11:03;37.25;;;5.47;;
47219;SDS011;32961;51.936;4.788;2023-03-25T09:13:32;35.92;;;6.53;;
47219;SDS011;32961;51.936;4.788;2023-03-25T09:15:59;36.85;;;6.18;;
47219;SDS011;32961;51.936;4.788;2023-03-25T09:18:27;29.20;;;6.55;;
47219;SDS011;32961;51.936;4.788;2023-03-25T09:20:57;31.00;;;6.32;;
47219;SDS011;32961;51.936;4.788;2023-03-25T09:23:27;33.70;;;5.55;;
47219;SDS011;32961;51.936;4.788;2023-03-25T09:25:58;29.77;;;5.00;;
47219;SDS011;32961;51.936;4.788;2023-03-25T09:28:27;27.02;;;4.60;;
47219;SDS011;32961;51.936;4.788;2023-03-25T09:30:55;27.17;;;4.78;;
47219;SDS011;32961;51.936;4.788;2023-03-25T09:33:23;27.65;;;5.25;;
47219;SDS011;32961;51.936;4.788;2023-03-25T09:35:52;37.65;;;6.47;;
47219;SDS011;32961;51.936;4.788;2023-03-25T09:38:21;32.70;;;5.05;;
47219;SDS011;32961;51.936;4.788;2023-03-25T09:40:50;34.92;;;5.53;;
47219;SDS011;32961;51.936;4.788;2023-03-25T09:43:29;30.10;;;5.63;;
47219;SDS011;32961;51.936;4.788;2023-03-25T09:46:03;36.15;;;5.18;;
47219;SDS011;32961;51.936;4.788;2023-03-25T09:48:33;27.42;;;5.03;;
47219;SDS011;32961;51.936;4.788;2023-03-25T09:51:04;32.03;;;4.30;;
47219;SDS011;32961;51.936;4.788;2023-03-25T09:53:34;24.23;;;5.30;;
47219;SDS011;32961;51.936;4.788;2023-03-25T09:58:40;33.75;;;7.30;;
47219;SDS011;32961;51.936;4.788;2023-03-25T10:01:24;28.75;;;5.63;;
47219;SDS011;32961;51.936;4.788;2023-03-25T10:04:06;33.65;;;5.45;;
47219;SDS011;32961;51.936;4.788;2023-03-25T10:06:45;38.15;;;7.03;;
47219;SDS011;32961;51.936;4.788;2023-03-25T10:09:29;28.75;;;6.10;;
47219;SDS011;32961;51.936;4.788;2023-03-25T10:12:10;25.27;;;5.32;;
47219;SDS011;32961;51.936;4.788;2023-03-25T10:14:51;24.77;;;4.10;;
47219;SDS011;32961;51.936;4.788;2023-03-25T10:17:31;23.02;;;4.43;;
47219;SDS011;32961;51.936;4.788;2023-03-25T10:20:09;36.80;;;6.82;;
47219;SDS011;32961;51.936;4.788;2023-03-25T10:22:46;21.17;;;5.22;;
47219;SDS011;32961;51.936;4.788;2023-03-25T10:25:21;31.30;;;4.60;;
47219;SDS011;32961;51.936;4.788;2023-03-25T10:27:54;26.65;;;4.55;;
47219;SDS011;32961;51.936;4.788;2023-03-25T10:30:24;27.42;;;3.88;;
47219;SDS011;32961;51.936;4.788;2023-03-25T10:32:57;28.15;;;5.13;;
47219;SDS011;32961;51.936;4.788;2023-03-25T10:35:26;38.08;;;7.90;;
47219;SDS011;32961;51.936;4.788;2023-03-25T10:37:57;29.80;;;4.65;;
47219;SDS011;32961;51.936;4.788;2023-03-25T10:40:32;25.77;;;5.78;;
47219;SDS011;32961;51.936;4.788;2023-03-25T10:43:08;21.80;;;4.75;;
47219;SDS011;32961;51.936;4.788;2023-03-25T10:45:42;28.20;;;5.20;;
47219;SDS011;32961;51.936;4.788;2023-03-25T10:48:20;24.98;;;4.15;;
47219;SDS011;32961;51.936;4.788;2023-03-25T10:50:50;34.88;;;4.93;;
47219;SDS011;32961;51.936;4.788;2023-03-25T10:53:21;23.23;;;4.93;;
47219;SDS011;32961;51.936;4.788;2023-03-25T10:55:52;30.30;;;6.18;;
47219;SDS011;32961;51.936;4.788;2023-03-25T10:58:24;23.77;;;5.07;;
47219;SDS011;32961;51.936;4.788;2023-03-25T11:00:53;28.70;;;5.55;;
47219;SDS011;32961;51.936;4.788;2023-03-25T11:03:21;27.92;;;4.88;;
47219;SDS011;32961;51.936;4.788;2023-03-25T11:05:53;27.98;;;5.68;;
47219;SDS011;32961;51.936;4.788;2023-03-25T11:08:21;31.17;;;4.88;;
47219;SDS011;32961;51.936;4.788;2023-03-25T11:10:51;33.28;;;4.55;;
47219;SDS011;32961;51.936;4.788;2023-03-25T11:13:25;36.08;;;6.38;;
47219;SDS011;32961;51.936;4.788;2023-03-25T11:15:56;26.55;;;5.03;;
47219;SDS011;32961;51.936;4.788;2023-03-25T11:18:26;28.08;;;4.53;;
47219;SDS011;32961;51.936;4.788;2023-03-25T11:20:59;35.55;;;6.10;;
47219;SDS011;32961;51.936;4.788;2023-03-25T11:23:30;29.58;;;4.43;;
47219;SDS011;32961;51.936;4.788;2023-03-25T11:26:01;21.98;;;4.85;;
47219;SDS011;32961;51.936;4.788;2023-03-25T11:28:35;21.17;;;3.63;;
47219;SDS011;32961;51.936;4.788;2023-03-25T11:31:06;23.40;;;4.38;;
47219;SDS011;32961;51.936;4.788;2023-03-25T11:33:37;24.10;;;5.80;;
47219;SDS011;32961;51.936;4.788;2023-03-25T11:36:10;25.55;;;4.55;;
47219;SDS011;32961;51.936;4.788;2023-03-25T11:38:39;21.05;;;3.75;;
47219;SDS011;32961;51.936;4.788;2023-03-25T11:41:07;27.98;;;4.30;;
47219;SDS011;32961;51.936;4.788;2023-03-25T11:43:36;17.70;;;3.85;;
47219;SDS011;32961;51.936;4.788;2023-03-25T11:46:06;31.23;;;6.25;;
47219;SDS011;32961;51.936;4.788;2023-03-25T11:48:36;18.45;;;4.72;;
47219;SDS011;32961;51.936;4.788;2023-03-25T11:51:07;21.85;;;3.80;;
47219;SDS011;32961;51.936;4.788;2023-03-25T11:53:42;28.05;;;4.07;;
47219;SDS011;32961;51.936;4.788;2023-03-25T11:56:14;27.42;;;4.95;;
47219;SDS011;32961;51.936;4.788;2023-03-25T11:58:47;18.48;;;3.92;;
47219;SDS011;32961;51.936;4.788;2023-03-25T12:01:22;24.00;;;4.30;;
47219;SDS011;32961;51.936;4.788;2023-03-25T12:04:04;28.05;;;4.63;;
47219;SDS011;32961;51.936;4.788;2023-03-25T12:06:34;26.38;;;4.50;;
47219;SDS011;32961;51.936;4.788;2023-03-25T12:09:05;21.08;;;3.60;;
47219;SDS011;32961;51.936;4.788;2023-03-25T12:11:38;20.58;;;3.83;;
47219;SDS011;32961;51.936;4.788;2023-03-25T12:14:18;23.77;;;4.85;;
47219;SDS011;32961;51.936;4.788;2023-03-25T12:16:53;25.42;;;4.10;;
47219;SDS011;32961;51.936;4.788;2023-03-25T12:19:27;18.75;;;4.95;;
47219;SDS011;32961;51.936;4.788;2023-03-25T12:22:12;24.23;;;4.00;;
47219;SDS011;32961;51.936;4.788;2023-03-25T12:24:56;20.17;;;3.58;;
47219;SDS011;32961;51.936;4.788;2023-03-25T12:27:37;14.70;;;3.55;;
47219;SDS011;32961;51.936;4.788;2023-03-25T12:30:18;16.63;;;3.25;;
47219;SDS011;32961;51.936;4.788;2023-03-25T12:32:57;14.32;;;3.10;;
47219;SDS011;32961;51.936;4.788;2023-03-25T12:35:38;21.05;;;5.05;;
47219;SDS011;32961;51.936;4.788;2023-03-25T12:38:20;19.77;;;3.92;;
47219;SDS011;32961;51.936;4.788;2023-03-25T12:41:12;24.92;;;3.55;;
47219;SDS011;32961;51.936;4.788;2023-03-25T12:43:52;22.10;;;4.60;;
47219;SDS011;32961;51.936;4.788;2023-03-25T12:46:32;23.00;;;5.10;;
47219;SDS011;32961;51.936;4.788;2023-03-25T12:49:21;29.73;;;4.82;;
47219;SDS011;32961;51.936;4.788;2023-03-25T12:52:02;23.10;;;4.95;;
47219;SDS011;32961;51.936;4.788;2023-03-25T12:54:38;21.17;;;3.75;;
47219;SDS011;32961;51.936;4.788;2023-03-25T12:57:22;23.33;;;4.47;;
47219;SDS011;32961;51.936;4.788;2023-03-25T13:00:06;23.70;;;3.90;;
47219;SDS011;32961;51.936;4.788;2023-03-25T13:02:59;25.27;;;4.35;;
47219;SDS011;32961;51.936;4.788;2023-03-25T13:05:43;20.40;;;3.50;;
47219;SDS011;32961;51.936;4.788;2023-03-25T13:08:17;19.42;;;4.15;;
47219;SDS011;32961;51.936;4.788;2023-03-25T13:10:48;22.75;;;4.05;;
47219;SDS011;32961;51.936;4.788;2023-03-25T13:13:23;20.65;;;3.55;;
47219;SDS011;32961;51.936;4.788;2023-03-25T13:15:54;17.67;;;3.30;;
47219;SDS011;32961;51.936;4.788;2023-03-25T13:18:31;15.30;;;3.33;;
47219;SDS011;32961;51.936;4.788;2023-03-25T13:21:03;17.02;;;3.38;;
47219;SDS011;32961;51.936;4.788;2023-03-25T13:23:39;18.55;;;3.92;;
47219;SDS011;32961;51.936;4.788;2023-03-25T13:26:10;23.38;;;4.53;;
47219;SDS011;32961;51.936;4.788;2023-03-25T13:28:42;15.38;;;3.20;;
47219;SDS011;32961;51.936;4.788;2023-03-25T13:31:13;15.63;;;2.67;;
47219;SDS011;32961;51.936;4.788;2023-03-25T13:33:47;10.07;;;2.35;;
47219;SDS011;32961;51.936;4.788;2023-03-25T13:36:21;13.77;;;2.63;;
47219;SDS011;32961;51.936;4.788;2023-03-25T13:38:55;20.63;;;3.88;;
47219;SDS011;32961;51.936;4.788;2023-03-25T13:41:24;19.88;;;3.50;;
47219;SDS011;32961;51.936;4.788;2023-03-25T13:43:59;24.95;;;4.18;;
47219;SDS011;32961;51.936;4.788;2023-03-25T13:46:35;23.40;;;3.63;;
47219;SDS011;32961;51.936;4.788;2023-03-25T13:49:11;25.15;;;4.78;;
47219;SDS011;32961;51.936;4.788;2023-03-25T13:51:43;23.23;;;3.95;;
47219;SDS011;32961;51.936;4.788;2023-03-25T13:54:13;34.00;;;5.22;;
47219;SDS011;32961;51.936;4.788;2023-03-25T13:57:05;20.90;;;4.07;;
47219;SDS011;32961;51.936;4.788;2023-03-25T14:00:02;24.50;;;4.03;;
47219;SDS011;32961;51.936;4.788;2023-03-25T14:02:49;20.52;;;4.78;;
47219;SDS011;32961;51.936;4.788;2023-03-25T14:05:36;21.02;;;3.70;;
47219;SDS011;32961;51.936;4.788;2023-03-25T14:08:29;22.80;;;3.88;;
47219;SDS011;32961;51.936;4.788;2023-03-25T14:11:18;21.63;;;4.45;;
47219;SDS011;32961;51.936;4.788;2023-03-25T14:13:51;29.50;;;4.40;;
47219;SDS011;32961;51.936;4.788;2023-03-25T14:16:22;22.27;;;3.17;;
47219;SDS011;32961;51.936;4.788;2023-03-25T14:18:54;16.00;;;3.63;;
47219;SDS011;32961;51.936;4.788;2023-03-25T14:21:29;21.73;;;3.65;;
47219;SDS011;32961;51.936;4.788;2023-03-25T14:24:01;16.63;;;3.08;;
47219;SDS011;32961;51.936;4.788;2023-03-25T14:26:32;14.63;;;2.42;;
47219;SDS011;32961;51.936;4.788;2023-03-25T14:29:05;11.52;;;2.30;;
47219;SDS011;32961;51.936;4.788;2023-03-25T14:31:36;15.85;;;2.78;;
47219;SDS011;32961;51.936;4.788;2023-03-25T14:37:26;20.98;;;3.15;;
47219;SDS011;32961;51.936;4.788;2023-03-25T14:39:57;20.55;;;3.92;;
47219;SDS011;32961;51.936;4.788;2023-03-25T14:42:28;13.77;;;2.67;;
47219;SDS011;32961;51.936;4.788;2023-03-25T14:48:04;22.15;;;4.68;;
47219;SDS011;32961;51.936;4.788;2023-03-25T14:51:05;27.88;;;6.35;;
47219;SDS011;32961;51.936;4.788;2023-03-25T14:53:37;20.92;;;3.67;;
47219;SDS011;32961;51.936;4.788;2023-03-25T14:56:07;23.42;;;4.88;;
47219;SDS011;32961;51.936;4.788;2023-03-25T14:58:44;29.70;;;5.40;;
47219;SDS011;32961;51.936;4.788;2023-03-25T15:01:19;33.38;;;5.20;;
47219;SDS011;32961;51.936;4.788;2023-03-25T15:03:48;19.38;;;3.40;;
47219;SDS011;32961;51.936;4.788;2023-03-25T15:06:17;22.08;;;4.20;;
47219;SDS011;32961;51.936;4.788;2023-03-25T15:08:56;27.65;;;4.72;;
47219;SDS011;32961;51.936;4.788;2023-03-25T15:11:26;36.20;;;5.03;;
47219;SDS011;32961;51.936;4.788;2023-03-25T15:14:00;22.05;;;5.10;;
47219;SDS011;32961;51.936;4.788;2023-03-25T15:16:32;19.67;;;4.63;;
47219;SDS011;32961;51.936;4.788;2023-03-25T15:19:03;23.00;;;4.75;;
47219;SDS011;32961;51.936;4.788;2023-03-25T15:21:34;26.58;;;5.10;;
47219;SDS011;32961;51.936;4.788;2023-03-25T15:24:37;23.02;;;5.82;;
47219;SDS011;32961;51.936;4.788;2023-03-25T15:27:07;27.73;;;5.15;;